sensor_id;sensor_type;location;lat;lon;timestamp;P1;durP1;ratioP1;P2;durP2;ratioP2
55222;SDS011;41090;48.632;12.428;2023-06-10T00:02:15;7.27;;;6.67;;
55222;SDS011;41090;48.632;12.428;2023-06-10T00:04:46;6.80;;;6.20;;
55222;SDS011;41090;48.632;12.428;2023-06-10T00:07:11;7.10;;;6.53;;
55222;SDS011;41090;48.632;12.428;2023-06-10T00:09:39;6.97;;;6.37;;
55222;SDS011;41090;48.632;12.428;2023-06-10T00:12:05;6.90;;;6.30;;
55222;SDS011;41090;48.632;12.428;2023-06-10T00:14:32;7.43;;;6.80;;
55222;SDS011;41090;48.632;12.428;2023-06-10T00:16:57;7.50;;;6.80;;
55222;SDS011;41090;48.632;12.428;2023-06-10T00:19:22;7.07;;;6.47;;
55222;SDS011;41090;48.632;12.428;2023-06-10T00:21:50;6.77;;;6.23;;
55222;SDS011;41090;48.632;12.428;2023-06-10T00:24:17;7.23;;;6.63;;
55222;SDS011;41090;48.632;12.428;2023-06-10T00:26:42;6.83;;;6.30;;
55222;SDS011;41090;48.632;12.428;2023-06-10T00:29:08;7.23;;;6.53;;
55222;SDS011;41090;48.632;12.428;2023-06-10T00:31:37;6.97;;;6.37;;
55222;SDS011;41090;48.632;12.428;2023-06-10T00:34:02;9.50;;;6.87;;
55222;SDS011;41090;48.632;12.428;2023-06-10T00:36:27;6.83;;;6.33;;
55222;SDS011;41090;48.632;12.428;2023-06-10T00:38:53;6.90;;;6.30;;
55222;SDS011;41090;48.632;12.428;2023-06-10T00:41:18;7.23;;;6.63;;
55222;SDS011;41090;48.632;12.428;2023-06-10T00:43:44;6.77;;;6.27;;
55222;SDS011;41090;48.632;12.428;2023-06-10T00:46:09;7.70;;;7.00;;
55222;SDS011;41090;48.632;12.428;2023-06-10T00:48:44;6.93;;;6.33;;
55222;SDS011;41090;48.632;12.428;2023-06-10T00:51:10;7.67;;;6.90;;
55222;SDS011;41090;48.632;12.428;2023-06-10T00:53:36;7.23;;;6.63;;
55222;SDS011;41090;48.632;12.428;2023-06-10T00:56:02;7.70;;;7.00;;
55222;SDS011;41090;48.632;12.428;2023-06-10T00:58:28;7.10;;;6.40;;
55222;SDS011;41090;48.632;12.428;2023-06-10T01:00:53;7.03;;;6.43;;
55222;SDS011;41090;48.632;12.428;2023-06-10T01:03:18;7.40;;;6.80;;
55222;SDS011;41090;48.632;12.428;2023-06-10T01:05:43;7.57;;;6.97;;
55222;SDS011;41090;48.632;12.428;2023-06-10T01:10:53;7.57;;;6.87;;
55222;SDS011;41090;48.632;12.428;2023-06-10T01:13:20;6.93;;;6.33;;
55222;SDS011;41090;48.632;12.428;2023-06-10T01:15:48;7.47;;;6.77;;
55222;SDS011;41090;48.632;12.428;2023-06-10T01:18:14;7.53;;;6.77;;
55222;SDS011;41090;48.632;12.428;2023-06-10T01:20:43;8.03;;;7.43;;
55222;SDS011;41090;48.632;12.428;2023-06-10T01:23:09;7.23;;;6.63;;
55222;SDS011;41090;48.632;12.428;2023-06-10T01:25:41;7.20;;;6.60;;
55222;SDS011;41090;48.632;12.428;2023-06-10T01:30:45;7.23;;;6.63;;
55222;SDS011;41090;48.632;12.428;2023-06-10T01:33:12;7.20;;;6.60;;
55222;SDS011;41090;48.632;12.428;2023-06-10T01:35:40;7.07;;;6.50;;
55222;SDS011;41090;48.632;12.428;2023-06-10T01:38:06;7.20;;;6.60;;
55222;SDS011;41090;48.632;12.428;2023-06-10T01:40:32;7.53;;;6.93;;
55222;SDS011;41090;48.632;12.428;2023-06-10T01:42:57;8.23;;;7.53;;
55222;SDS011;41090;48.632;12.428;2023-06-10T01:45:34;7.40;;;6.70;;
55222;SDS011;41090;48.632;12.428;2023-06-10T01:47:59;7.50;;;6.80;;
55222;SDS011;41090;48.632;12.428;2023-06-10T01:50:24;7.77;;;7.17;;
55222;SDS011;41090;48.632;12.428;2023-06-10T01:52:50;7.40;;;6.70;;
55222;SDS011;41090;48.632;12.428;2023-06-10T01:55:15;7.63;;;6.87;;
55222;SDS011;41090;48.632;12.428;2023-06-10T01:57:40;7.37;;;6.63;;
55222;SDS011;41090;48.632;12.428;2023-06-10T02:00:06;7.33;;;6.73;;
55222;SDS011;41090;48.632;12.428;2023-06-10T02:02:31;8.80;;;6.70;;
55222;SDS011;41090;48.632;12.428;2023-06-10T02:04:56;7.47;;;6.77;;
55222;SDS011;41090;48.632;12.428;2023-06-10T02:07:25;7.40;;;6.80;;
55222;SDS011;41090;48.632;12.428;2023-06-10T02:09:50;7.67;;;6.87;;
55222;SDS011;41090;48.632;12.428;2023-06-10T02:12:15;6.90;;;6.30;;
55222;SDS011;41090;48.632;12.428;2023-06-10T02:14:53;6.80;;;6.20;;
55222;SDS011;41090;48.632;12.428;2023-06-10T02:17:18;7.37;;;6.77;;
55222;SDS011;41090;48.632;12.428;2023-06-10T02:19:44;7.40;;;6.80;;
55222;SDS011;41090;48.632;12.428;2023-06-10T02:22:17;7.70;;;7.10;;
55222;SDS011;41090;48.632;12.428;2023-06-10T02:24:42;7.00;;;6.30;;
55222;SDS011;41090;48.632;12.428;2023-06-10T02:27:07;7.03;;;6.43;;
55222;SDS011;41090;48.632;12.428;2023-06-10T02:29:33;7.47;;;6.87;;
55222;SDS011;41090;48.632;12.428;2023-06-10T02:31:59;6.90;;;6.37;;
55222;SDS011;41090;48.632;12.428;2023-06-10T02:34:24;7.60;;;6.90;;
55222;SDS011;41090;48.632;12.428;2023-06-10T02:36:52;7.60;;;6.90;;
55222;SDS011;41090;48.632;12.428;2023-06-10T02:39:18;7.40;;;6.70;;
55222;SDS011;41090;48.632;12.428;2023-06-10T02:41:44;8.50;;;7.80;;
55222;SDS011;41090;48.632;12.428;2023-06-10T02:44:09;8.40;;;7.60;;
55222;SDS011;41090;48.632;12.428;2023-06-10T02:46:35;7.80;;;7.10;;
55222;SDS011;41090;48.632;12.428;2023-06-10T02:49:02;7.60;;;6.90;;
55222;SDS011;41090;48.632;12.428;2023-06-10T02:51:30;7.13;;;6.63;;
55222;SDS011;41090;48.632;12.428;2023-06-10T02:53:55;8.30;;;7.63;;
55222;SDS011;41090;48.632;12.428;2023-06-10T02:56:38;7.80;;;7.10;;
55222;SDS011;41090;48.632;12.428;2023-06-10T02:59:06;7.40;;;6.80;;
55222;SDS011;41090;48.632;12.428;2023-06-10T03:01:33;7.97;;;7.27;;
55222;SDS011;41090;48.632;12.428;2023-06-10T03:03:59;8.47;;;7.77;;
55222;SDS011;41090;48.632;12.428;2023-06-10T03:06:25;8.83;;;8.07;;
55222;SDS011;41090;48.632;12.428;2023-06-10T03:08:53;8.37;;;7.57;;
55222;SDS011;41090;48.632;12.428;2023-06-10T03:11:18;7.80;;;7.03;;
55222;SDS011;41090;48.632;12.428;2023-06-10T03:13:44;8.57;;;7.87;;
55222;SDS011;41090;48.632;12.428;2023-06-10T03:16:10;7.50;;;6.90;;
55222;SDS011;41090;48.632;12.428;2023-06-10T03:18:37;7.33;;;6.73;;
55222;SDS011;41090;48.632;12.428;2023-06-10T03:21:02;7.90;;;7.20;;
55222;SDS011;41090;48.632;12.428;2023-06-10T03:23:28;7.40;;;6.70;;
55222;SDS011;41090;48.632;12.428;2023-06-10T03:25:54;8.00;;;7.30;;
55222;SDS011;41090;48.632;12.428;2023-06-10T03:28:20;8.33;;;7.63;;
55222;SDS011;41090;48.632;12.428;2023-06-10T03:30:46;8.37;;;7.57;;
55222;SDS011;41090;48.632;12.428;2023-06-10T03:33:13;7.80;;;7.13;;
55222;SDS011;41090;48.632;12.428;2023-06-10T03:35:39;7.70;;;7.00;;
55222;SDS011;41090;48.632;12.428;2023-06-10T03:38:04;7.97;;;7.17;;
55222;SDS011;41090;48.632;12.428;2023-06-10T03:40:30;7.93;;;7.23;;
55222;SDS011;41090;48.632;12.428;2023-06-10T03:42:56;7.77;;;7.03;;
55222;SDS011;41090;48.632;12.428;2023-06-10T03:45:22;7.97;;;7.27;;
55222;SDS011;41090;48.632;12.428;2023-06-10T03:47:48;8.67;;;7.97;;
55222;SDS011;41090;48.632;12.428;2023-06-10T03:50:13;7.87;;;7.27;;
55222;SDS011;41090;48.632;12.428;2023-06-10T03:52:38;9.67;;;8.80;;
55222;SDS011;41090;48.632;12.428;2023-06-10T03:55:05;7.60;;;7.00;;
55222;SDS011;41090;48.632;12.428;2023-06-10T03:57:30;8.23;;;7.53;;
55222;SDS011;41090;48.632;12.428;2023-06-10T03:59:55;8.83;;;8.03;;
55222;SDS011;41090;48.632;12.428;2023-06-10T04:02:21;8.63;;;7.67;;
55222;SDS011;41090;48.632;12.428;2023-06-10T04:04:47;8.57;;;7.83;;
55222;SDS011;41090;48.632;12.428;2023-06-10T04:07:12;9.10;;;8.30;;
55222;SDS011;41090;48.632;12.428;2023-06-10T04:09:38;8.40;;;7.60;;
55222;SDS011;41090;48.632;12.428;2023-06-10T04:12:04;9.00;;;8.10;;
55222;SDS011;41090;48.632;12.428;2023-06-10T04:14:31;9.73;;;8.83;;
55222;SDS011;41090;48.632;12.428;2023-06-10T04:16:56;9.93;;;9.07;;
55222;SDS011;41090;48.632;12.428;2023-06-10T04:19:21;8.67;;;7.93;;
55222;SDS011;41090;48.632;12.428;2023-06-10T04:21:47;8.30;;;7.60;;
55222;SDS011;41090;48.632;12.428;2023-06-10T04:24:12;8.83;;;8.03;;
55222;SDS011;41090;48.632;12.428;2023-06-10T04:26:37;8.93;;;8.13;;
55222;SDS011;41090;48.632;12.428;2023-06-10T04:29:03;9.03;;;8.27;;
55222;SDS011;41090;48.632;12.428;2023-06-10T04:31:28;9.17;;;8.37;;
55222;SDS011;41090;48.632;12.428;2023-06-10T04:33:53;8.07;;;7.47;;
55222;SDS011;41090;48.632;12.428;2023-06-10T04:36:19;9.33;;;8.53;;
55222;SDS011;41090;48.632;12.428;2023-06-10T04:38:44;9.60;;;8.80;;
55222;SDS011;41090;48.632;12.428;2023-06-10T04:41:10;8.57;;;7.83;;
55222;SDS011;41090;48.632;12.428;2023-06-10T04:43:36;10.67;;;9.57;;
55222;SDS011;41090;48.632;12.428;2023-06-10T04:46:01;11.37;;;10.47;;
55222;SDS011;41090;48.632;12.428;2023-06-10T04:48:28;10.80;;;9.90;;
55222;SDS011;41090;48.632;12.428;2023-06-10T04:50:53;11.37;;;10.37;;
55222;SDS011;41090;48.632;12.428;2023-06-10T04:53:18;9.20;;;8.40;;
55222;SDS011;41090;48.632;12.428;2023-06-10T04:55:44;9.87;;;9.07;;
55222;SDS011;41090;48.632;12.428;2023-06-10T04:58:09;8.80;;;8.10;;
55222;SDS011;41090;48.632;12.428;2023-06-10T05:00:34;9.20;;;8.40;;
55222;SDS011;41090;48.632;12.428;2023-06-10T05:03:00;9.27;;;8.47;;
55222;SDS011;41090;48.632;12.428;2023-06-10T05:05:25;11.00;;;9.33;;
55222;SDS011;41090;48.632;12.428;2023-06-10T05:07:50;10.40;;;9.53;;
55222;SDS011;41090;48.632;12.428;2023-06-10T05:10:15;10.80;;;9.90;;
55222;SDS011;41090;48.632;12.428;2023-06-10T05:12:41;12.13;;;11.03;;
55222;SDS011;41090;48.632;12.428;2023-06-10T05:15:06;12.03;;;11.03;;
55222;SDS011;41090;48.632;12.428;2023-06-10T05:17:32;10.27;;;9.37;;
55222;SDS011;41090;48.632;12.428;2023-06-10T05:19:57;10.40;;;9.50;;
55222;SDS011;41090;48.632;12.428;2023-06-10T05:22:23;11.50;;;10.50;;
55222;SDS011;41090;48.632;12.428;2023-06-10T05:24:49;9.60;;;8.80;;
55222;SDS011;41090;48.632;12.428;2023-06-10T05:27:16;10.87;;;9.87;;
55222;SDS011;41090;48.632;12.428;2023-06-10T05:29:41;9.77;;;8.87;;
55222;SDS011;41090;48.632;12.428;2023-06-10T05:32:06;11.00;;;10.00;;
55222;SDS011;41090;48.632;12.428;2023-06-10T05:34:31;9.87;;;8.87;;
55222;SDS011;41090;48.632;12.428;2023-06-10T05:36:57;10.67;;;9.77;;
55222;SDS011;41090;48.632;12.428;2023-06-10T05:39:22;9.57;;;8.67;;
55222;SDS011;41090;48.632;12.428;2023-06-10T05:41:47;9.37;;;8.57;;
55222;SDS011;41090;48.632;12.428;2023-06-10T05:44:12;10.40;;;9.50;;
55222;SDS011;41090;48.632;12.428;2023-06-10T05:46:38;9.97;;;8.70;;
55222;SDS011;41090;48.632;12.428;2023-06-10T05:49:03;10.33;;;9.40;;
55222;SDS011;41090;48.632;12.428;2023-06-10T05:51:28;9.60;;;8.70;;
55222;SDS011;41090;48.632;12.428;2023-06-10T05:53:54;9.27;;;8.47;;
55222;SDS011;41090;48.632;12.428;2023-06-10T05:56:31;9.33;;;7.83;;
55222;SDS011;41090;48.632;12.428;2023-06-10T05:58:57;9.90;;;9.00;;
55222;SDS011;41090;48.632;12.428;2023-06-10T06:01:22;9.63;;;8.83;;
55222;SDS011;41090;48.632;12.428;2023-06-10T06:03:47;10.50;;;9.60;;
55222;SDS011;41090;48.632;12.428;2023-06-10T06:06:20;10.70;;;9.80;;
55222;SDS011;41090;48.632;12.428;2023-06-10T06:08:48;10.00;;;9.10;;
55222;SDS011;41090;48.632;12.428;2023-06-10T06:11:14;8.87;;;7.57;;
55222;SDS011;41090;48.632;12.428;2023-06-10T06:13:40;9.60;;;8.70;;
55222;SDS011;41090;48.632;12.428;2023-06-10T06:16:07;8.60;;;7.90;;
55222;SDS011;41090;48.632;12.428;2023-06-10T06:18:32;7.97;;;7.27;;
55222;SDS011;41090;48.632;12.428;2023-06-10T06:20:57;8.47;;;7.77;;
55222;SDS011;41090;48.632;12.428;2023-06-10T06:23:22;8.13;;;7.43;;
55222;SDS011;41090;48.632;12.428;2023-06-10T06:25:48;9.00;;;8.10;;
55222;SDS011;41090;48.632;12.428;2023-06-10T06:28:13;8.70;;;7.90;;
55222;SDS011;41090;48.632;12.428;2023-06-10T06:30:38;8.77;;;7.97;;
55222;SDS011;41090;48.632;12.428;2023-06-10T06:33:03;8.97;;;8.13;;
55222;SDS011;41090;48.632;12.428;2023-06-10T06:35:32;9.40;;;8.50;;
55222;SDS011;41090;48.632;12.428;2023-06-10T06:37:58;7.77;;;7.07;;
55222;SDS011;41090;48.632;12.428;2023-06-10T06:40:24;8.10;;;7.50;;
55222;SDS011;41090;48.632;12.428;2023-06-10T06:42:49;8.97;;;8.17;;
55222;SDS011;41090;48.632;12.428;2023-06-10T06:45:14;8.53;;;7.73;;
55222;SDS011;41090;48.632;12.428;2023-06-10T06:47:40;7.90;;;7.20;;
55222;SDS011;41090;48.632;12.428;2023-06-10T06:50:05;7.97;;;7.27;;
55222;SDS011;41090;48.632;12.428;2023-06-10T06:52:31;8.20;;;7.47;;
55222;SDS011;41090;48.632;12.428;2023-06-10T06:54:56;8.20;;;7.50;;
55222;SDS011;41090;48.632;12.428;2023-06-10T06:57:21;7.60;;;6.90;;
55222;SDS011;41090;48.632;12.428;2023-06-10T06:59:48;7.47;;;6.83;;
55222;SDS011;41090;48.632;12.428;2023-06-10T07:02:13;7.47;;;6.87;;
55222;SDS011;41090;48.632;12.428;2023-06-10T07:04:38;7.90;;;7.13;;
55222;SDS011;41090;48.632;12.428;2023-06-10T07:07:07;7.60;;;7.00;;
55222;SDS011;41090;48.632;12.428;2023-06-10T07:09:33;7.13;;;6.53;;
55222;SDS011;41090;48.632;12.428;2023-06-10T07:11:58;7.20;;;6.60;;
55222;SDS011;41090;48.632;12.428;2023-06-10T07:14:26;7.00;;;6.35;;
55222;SDS011;41090;48.632;12.428;2023-06-10T07:16:52;5.95;;;5.10;;
55222;SDS011;41090;48.632;12.428;2023-06-10T07:19:17;5.13;;;4.65;;
55222;SDS011;41090;48.632;12.428;2023-06-10T07:21:42;4.90;;;4.50;;
55222;SDS011;41090;48.632;12.428;2023-06-10T07:24:07;4.50;;;4.20;;
55222;SDS011;41090;48.632;12.428;2023-06-10T07:26:33;5.10;;;4.70;;
55222;SDS011;41090;48.632;12.428;2023-06-10T07:28:58;4.60;;;4.20;;
55222;SDS011;41090;48.632;12.428;2023-06-10T07:31:23;3.90;;;3.70;;
55222;SDS011;41090;48.632;12.428;2023-06-10T07:33:49;4.40;;;4.00;;
55222;SDS011;41090;48.632;12.428;2023-06-10T07:36:15;3.80;;;3.60;;
55222;SDS011;41090;48.632;12.428;2023-06-10T07:38:40;3.90;;;3.63;;
55222;SDS011;41090;48.632;12.428;2023-06-10T07:41:07;3.85;;;3.65;;
55222;SDS011;41090;48.632;12.428;2023-06-10T07:43:32;3.92;;;3.70;;
55222;SDS011;41090;48.632;12.428;2023-06-10T07:45:57;3.53;;;3.33;;
55222;SDS011;41090;48.632;12.428;2023-06-10T07:48:23;3.70;;;3.50;;
55222;SDS011;41090;48.632;12.428;2023-06-10T07:50:48;3.80;;;3.60;;
55222;SDS011;41090;48.632;12.428;2023-06-10T07:53:13;4.33;;;4.00;;
55222;SDS011;41090;48.632;12.428;2023-06-10T07:55:38;4.20;;;3.90;;
55222;SDS011;41090;48.632;12.428;2023-06-10T07:58:04;4.20;;;3.80;;
55222;SDS011;41090;48.632;12.428;2023-06-10T08:00:29;4.40;;;4.10;;
55222;SDS011;41090;48.632;12.428;2023-06-10T08:02:54;3.33;;;3.13;;
55222;SDS011;41090;48.632;12.428;2023-06-10T08:05:20;3.60;;;3.40;;
55222;SDS011;41090;48.632;12.428;2023-06-10T08:07:46;4.13;;;3.72;;
55222;SDS011;41090;48.632;12.428;2023-06-10T08:10:11;4.40;;;4.00;;
55222;SDS011;41090;48.632;12.428;2023-06-10T08:12:36;4.13;;;3.83;;
55222;SDS011;41090;48.632;12.428;2023-06-10T08:15:02;4.20;;;3.90;;
55222;SDS011;41090;48.632;12.428;2023-06-10T08:17:29;4.20;;;3.90;;
55222;SDS011;41090;48.632;12.428;2023-06-10T08:19:54;4.43;;;4.13;;
55222;SDS011;41090;48.632;12.428;2023-06-10T08:22:20;4.57;;;4.20;;
55222;SDS011;41090;48.632;12.428;2023-06-10T08:24:45;5.32;;;4.85;;
55222;SDS011;41090;48.632;12.428;2023-06-10T08:27:10;4.80;;;4.40;;
55222;SDS011;41090;48.632;12.428;2023-06-10T08:29:35;5.47;;;4.63;;
55222;SDS011;41090;48.632;12.428;2023-06-10T08:32:02;5.10;;;4.60;;
55222;SDS011;41090;48.632;12.428;2023-06-10T08:34:28;4.75;;;4.45;;
55222;SDS011;41090;48.632;12.428;2023-06-10T08:36:53;5.03;;;4.63;;
55222;SDS011;41090;48.632;12.428;2023-06-10T08:39:20;4.88;;;4.47;;
55222;SDS011;41090;48.632;12.428;2023-06-10T08:41:48;5.32;;;4.82;;
55222;SDS011;41090;48.632;12.428;2023-06-10T08:44:37;5.07;;;4.60;;
55222;SDS011;41090;48.632;12.428;2023-06-10T08:47:06;5.05;;;4.65;;
55222;SDS011;41090;48.632;12.428;2023-06-10T08:49:33;5.20;;;4.70;;
55222;SDS011;41090;48.632;12.428;2023-06-10T08:52:00;5.50;;;5.10;;
55222;SDS011;41090;48.632;12.428;2023-06-10T08:54:27;5.60;;;5.10;;
55222;SDS011;41090;48.632;12.428;2023-06-10T08:56:54;6.18;;;5.60;;
55222;SDS011;41090;48.632;12.428;2023-06-10T08:59:20;5.13;;;4.72;;
55222;SDS011;41090;48.632;12.428;2023-06-10T09:01:46;6.18;;;5.43;;
55222;SDS011;41090;48.632;12.428;2023-06-10T09:04:12;5.05;;;4.65;;
55222;SDS011;41090;48.632;12.428;2023-06-10T09:06:37;5.13;;;4.70;;
55222;SDS011;41090;48.632;12.428;2023-06-10T09:09:03;5.00;;;4.53;;
55222;SDS011;41090;48.632;12.428;2023-06-10T09:11:28;4.88;;;4.47;;
55222;SDS011;41090;48.632;12.428;2023-06-10T09:13:53;5.10;;;4.70;;
55222;SDS011;41090;48.632;12.428;2023-06-10T09:16:19;5.03;;;4.45;;
55222;SDS011;41090;48.632;12.428;2023-06-10T09:18:44;5.47;;;5.07;;
55222;SDS011;41090;48.632;12.428;2023-06-10T09:23:41;5.78;;;5.18;;
55222;SDS011;41090;48.632;12.428;2023-06-10T09:26:14;6.03;;;5.50;;
55222;SDS011;41090;48.632;12.428;2023-06-10T09:28:41;5.10;;;4.70;;
55222;SDS011;41090;48.632;12.428;2023-06-10T09:31:07;5.40;;;4.88;;
55222;SDS011;41090;48.632;12.428;2023-06-10T09:33:33;5.50;;;5.00;;
55222;SDS011;41090;48.632;12.428;2023-06-10T09:36:02;5.80;;;5.20;;
55222;SDS011;41090;48.632;12.428;2023-06-10T09:38:31;5.60;;;5.10;;
55222;SDS011;41090;48.632;12.428;2023-06-10T09:40:57;5.47;;;4.85;;
55222;SDS011;41090;48.632;12.428;2023-06-10T09:43:22;5.63;;;5.13;;
55222;SDS011;41090;48.632;12.428;2023-06-10T09:45:48;5.30;;;4.85;;
55222;SDS011;41090;48.632;12.428;2023-06-10T09:48:14;5.88;;;5.43;;
55222;SDS011;41090;48.632;12.428;2023-06-10T09:50:42;5.70;;;5.20;;
55222;SDS011;41090;48.632;12.428;2023-06-10T09:53:08;5.55;;;5.05;;
55222;SDS011;41090;48.632;12.428;2023-06-10T09:55:35;5.88;;;5.38;;
55222;SDS011;41090;48.632;12.428;2023-06-10T09:58:02;5.50;;;5.00;;
55222;SDS011;41090;48.632;12.428;2023-06-10T10:00:28;6.15;;;5.65;;
55222;SDS011;41090;48.632;12.428;2023-06-10T10:02:54;6.50;;;5.90;;
55222;SDS011;41090;48.632;12.428;2023-06-10T10:05:20;5.97;;;5.38;;
55222;SDS011;41090;48.632;12.428;2023-06-10T10:07:46;5.65;;;5.25;;
55222;SDS011;41090;48.632;12.428;2023-06-10T10:10:12;5.32;;;4.82;;
55222;SDS011;41090;48.632;12.428;2023-06-10T10:12:45;5.30;;;4.82;;
55222;SDS011;41090;48.632;12.428;2023-06-10T10:15:11;5.60;;;5.10;;
55222;SDS011;41090;48.632;12.428;2023-06-10T10:17:58;5.72;;;5.13;;
55222;SDS011;41090;48.632;12.428;2023-06-10T10:20:29;5.75;;;5.32;;
55222;SDS011;41090;48.632;12.428;2023-06-10T10:22:56;5.43;;;5.03;;
55222;SDS011;41090;48.632;12.428;2023-06-10T10:25:29;5.50;;;5.10;;
55222;SDS011;41090;48.632;12.428;2023-06-10T10:28:09;5.30;;;4.90;;
55222;SDS011;41090;48.632;12.428;2023-06-10T10:30:37;5.43;;;5.03;;
55222;SDS011;41090;48.632;12.428;2023-06-10T10:33:18;6.25;;;5.75;;
55222;SDS011;41090;48.632;12.428;2023-06-10T10:35:51;6.22;;;5.70;;
55222;SDS011;41090;48.632;12.428;2023-06-10T10:38:18;6.30;;;5.72;;
55222;SDS011;41090;48.632;12.428;2023-06-10T10:40:44;6.53;;;5.93;;
55222;SDS011;41090;48.632;12.428;2023-06-10T10:43:10;5.72;;;5.32;;
55222;SDS011;41090;48.632;12.428;2023-06-10T10:45:35;5.75;;;5.25;;
55222;SDS011;41090;48.632;12.428;2023-06-10T10:48:04;5.38;;;4.97;;
55222;SDS011;41090;48.632;12.428;2023-06-10T10:50:30;5.40;;;4.90;;
55222;SDS011;41090;48.632;12.428;2023-06-10T10:52:56;5.60;;;5.18;;
55222;SDS011;41090;48.632;12.428;2023-06-10T10:55:24;5.10;;;4.68;;
55222;SDS011;41090;48.632;12.428;2023-06-10T10:57:56;5.15;;;4.75;;
55222;SDS011;41090;48.632;12.428;2023-06-10T11:00:43;6.00;;;4.95;;
55222;SDS011;41090;48.632;12.428;2023-06-10T11:03:12;4.93;;;4.53;;
55222;SDS011;41090;48.632;12.428;2023-06-10T11:08:04;4.60;;;4.30;;
55222;SDS011;41090;48.632;12.428;2023-06-10T11:10:33;4.57;;;4.22;;
55222;SDS011;41090;48.632;12.428;2023-06-10T11:12:59;4.63;;;4.30;;
55222;SDS011;41090;48.632;12.428;2023-06-10T11:15:25;5.03;;;4.40;;
55222;SDS011;41090;48.632;12.428;2023-06-10T11:18:06;5.15;;;4.70;;
55222;SDS011;41090;48.632;12.428;2023-06-10T11:20:50;7.40;;;4.90;;
55222;SDS011;41090;48.632;12.428;2023-06-10T11:23:59;5.13;;;4.63;;
55222;SDS011;41090;48.632;12.428;2023-06-10T11:26:15;5.13;;;4.63;;
55222;SDS011;41090;48.632;12.428;2023-06-10T11:28:42;5.38;;;4.57;;
55222;SDS011;41090;48.632;12.428;2023-06-10T11:31:08;4.82;;;4.35;;
55222;SDS011;41090;48.632;12.428;2023-06-10T11:33:36;4.10;;;3.80;;
55222;SDS011;41090;48.632;12.428;2023-06-10T11:36:06;4.25;;;3.90;;
55222;SDS011;41090;48.632;12.428;2023-06-10T11:38:31;4.60;;;4.10;;
55222;SDS011;41090;48.632;12.428;2023-06-10T11:40:57;3.97;;;3.67;;
55222;SDS011;41090;48.632;12.428;2023-06-10T11:43:22;3.60;;;3.40;;
55222;SDS011;41090;48.632;12.428;2023-06-10T11:45:47;3.88;;;3.58;;
55222;SDS011;41090;48.632;12.428;2023-06-10T11:48:18;3.80;;;3.53;;
55222;SDS011;41090;48.632;12.428;2023-06-10T11:50:44;3.70;;;3.40;;
55222;SDS011;41090;48.632;12.428;2023-06-10T11:53:09;4.13;;;3.70;;
55222;SDS011;41090;48.632;12.428;2023-06-10T11:55:44;4.85;;;4.05;;
55222;SDS011;41090;48.632;12.428;2023-06-10T11:58:16;5.20;;;3.72;;
55222;SDS011;41090;48.632;12.428;2023-06-10T12:00:45;4.57;;;4.18;;
55222;SDS011;41090;48.632;12.428;2023-06-10T12:03:11;4.30;;;3.90;;
55222;SDS011;41090;48.632;12.428;2023-06-10T12:08:25;4.82;;;4.05;;
55222;SDS011;41090;48.632;12.428;2023-06-10T12:10:50;5.13;;;4.60;;
55222;SDS011;41090;48.632;12.428;2023-06-10T12:13:15;4.53;;;4.13;;
55222;SDS011;41090;48.632;12.428;2023-06-10T12:15:43;4.47;;;4.18;;
55222;SDS011;41090;48.632;12.428;2023-06-10T12:18:08;4.57;;;4.22;;
55222;SDS011;41090;48.632;12.428;2023-06-10T12:23:10;4.50;;;4.10;;
55222;SDS011;41090;48.632;12.428;2023-06-10T12:25:36;4.00;;;3.60;;
55222;SDS011;41090;48.632;12.428;2023-06-10T12:28:05;4.70;;;4.35;;
55222;SDS011;41090;48.632;12.428;2023-06-10T12:30:33;5.05;;;4.55;;
55222;SDS011;41090;48.632;12.428;2023-06-10T12:32:59;4.65;;;4.25;;
55222;SDS011;41090;48.632;12.428;2023-06-10T12:35:25;4.45;;;4.15;;
55222;SDS011;41090;48.632;12.428;2023-06-10T12:40:32;4.82;;;4.43;;
55222;SDS011;41090;48.632;12.428;2023-06-10T12:42:58;4.80;;;4.35;;
55222;SDS011;41090;48.632;12.428;2023-06-10T12:45:33;5.15;;;4.65;;
55222;SDS011;41090;48.632;12.428;2023-06-10T12:50:31;5.50;;;5.00;;
55222;SDS011;41090;48.632;12.428;2023-06-10T12:52:57;4.95;;;4.53;;
55222;SDS011;41090;48.632;12.428;2023-06-10T12:55:22;5.85;;;5.35;;
55222;SDS011;41090;48.632;12.428;2023-06-10T12:57:48;5.80;;;5.40;;
55222;SDS011;41090;48.632;12.428;2023-06-10T13:00:14;6.10;;;5.50;;
55222;SDS011;41090;48.632;12.428;2023-06-10T13:02:39;6.25;;;5.75;;
55222;SDS011;41090;48.632;12.428;2023-06-10T13:05:04;5.70;;;5.20;;
55222;SDS011;41090;48.632;12.428;2023-06-10T13:07:30;5.22;;;4.82;;
55222;SDS011;41090;48.632;12.428;2023-06-10T13:09:55;5.05;;;4.60;;
55222;SDS011;41090;48.632;12.428;2023-06-10T13:12:20;5.65;;;4.55;;
55222;SDS011;41090;48.632;12.428;2023-06-10T13:14:46;3.78;;;3.47;;
55222;SDS011;41090;48.632;12.428;2023-06-10T13:17:11;4.85;;;3.90;;
55222;SDS011;41090;48.632;12.428;2023-06-10T13:19:36;3.90;;;3.50;;
55222;SDS011;41090;48.632;12.428;2023-06-10T13:22:01;4.10;;;3.70;;
55222;SDS011;41090;48.632;12.428;2023-06-10T13:24:27;4.40;;;4.00;;
55222;SDS011;41090;48.632;12.428;2023-06-10T13:26:52;4.50;;;4.13;;
55222;SDS011;41090;48.632;12.428;2023-06-10T13:29:17;4.15;;;3.85;;
55222;SDS011;41090;48.632;12.428;2023-06-10T13:31:43;4.32;;;4.03;;
55222;SDS011;41090;48.632;12.428;2023-06-10T13:34:10;4.30;;;4.00;;
55222;SDS011;41090;48.632;12.428;2023-06-10T13:36:37;3.97;;;3.67;;
55222;SDS011;41090;48.632;12.428;2023-06-10T13:39:02;3.72;;;3.50;;
55222;SDS011;41090;48.632;12.428;2023-06-10T13:41:38;3.53;;;3.33;;
55222;SDS011;41090;48.632;12.428;2023-06-10T13:44:03;4.30;;;4.00;;
55222;SDS011;41090;48.632;12.428;2023-06-10T13:46:29;4.07;;;3.78;;
55222;SDS011;41090;48.632;12.428;2023-06-10T13:48:55;4.75;;;4.35;;
55222;SDS011;41090;48.632;12.428;2023-06-10T13:51:27;4.32;;;3.92;;
55222;SDS011;41090;48.632;12.428;2023-06-10T13:53:52;4.43;;;4.13;;
55222;SDS011;41090;48.632;12.428;2023-06-10T13:56:20;3.70;;;3.50;;
55222;SDS011;41090;48.632;12.428;2023-06-10T13:58:45;4.38;;;4.07;;
55222;SDS011;41090;48.632;12.428;2023-06-10T14:01:10;4.25;;;3.90;;
55222;SDS011;41090;48.632;12.428;2023-06-10T14:03:36;4.00;;;3.70;;
55222;SDS011;41090;48.632;12.428;2023-06-10T14:06:01;3.97;;;3.60;;
55222;SDS011;41090;48.632;12.428;2023-06-10T14:08:27;3.55;;;3.25;;
55222;SDS011;41090;48.632;12.428;2023-06-10T14:10:52;3.90;;;3.60;;
55222;SDS011;41090;48.632;12.428;2023-06-10T14:13:17;4.28;;;3.88;;
55222;SDS011;41090;48.632;12.428;2023-06-10T14:15:43;5.00;;;4.20;;
55222;SDS011;41090;48.632;12.428;2023-06-10T14:18:08;5.25;;;3.78;;
55222;SDS011;41090;48.632;12.428;2023-06-10T14:20:33;3.97;;;3.67;;
55222;SDS011;41090;48.632;12.428;2023-06-10T14:22:59;5.47;;;4.80;;
55222;SDS011;41090;48.632;12.428;2023-06-10T14:25:24;11.90;;;10.77;;
55222;SDS011;41090;48.632;12.428;2023-06-10T14:27:50;6.20;;;5.20;;
55222;SDS011;41090;48.632;12.428;2023-06-10T14:30:15;4.68;;;3.70;;
55222;SDS011;41090;48.632;12.428;2023-06-10T14:32:40;5.80;;;5.15;;
55222;SDS011;41090;48.632;12.428;2023-06-10T14:35:06;4.95;;;4.55;;
55222;SDS011;41090;48.632;12.428;2023-06-10T14:37:31;4.25;;;3.85;;
55222;SDS011;41090;48.632;12.428;2023-06-10T14:39:56;5.78;;;5.28;;
55222;SDS011;41090;48.632;12.428;2023-06-10T14:42:22;4.13;;;3.83;;
55222;SDS011;41090;48.632;12.428;2023-06-10T14:44:47;5.13;;;4.07;;
55222;SDS011;41090;48.632;12.428;2023-06-10T14:47:12;4.53;;;4.10;;
55222;SDS011;41090;48.632;12.428;2023-06-10T14:49:38;4.57;;;4.18;;
55222;SDS011;41090;48.632;12.428;2023-06-10T14:52:03;9.50;;;8.50;;